sensor_id;sensor_type;location;lat;lon;timestamp;pressure;altitude;pressure_sealevel;temperature;humidity
51369;BME280;37459;51.416;5.502;2022-12-18T00:01:58;102126.41;;;-5.51;86.30
51369;BME280;37459;51.416;5.502;2022-12-18T00:04:26;102117.84;;;-5.54;86.23
51369;BME280;37459;51.416;5.502;2022-12-18T00:06:54;102120.31;;;-5.51;86.17
51369;BME280;37459;51.416;5.502;2022-12-18T00:09:21;102132.81;;;-5.57;86.15
51369;BME280;37459;51.416;5.502;2022-12-18T00:11:47;102133.66;;;-5.56;85.92
51369;BME280;37459;51.416;5.502;2022-12-18T00:14:14;102126.31;;;-5.67;85.84
51369;BME280;37459;51.416;5.502;2022-12-18T00:16:43;102140.44;;;-5.69;85.79
51369;BME280;37459;51.416;5.502;2022-12-18T00:19:10;102134.06;;;-5.64;86.13
51369;BME280;37459;51.416;5.502;2022-12-18T00:21:37;102132.97;;;-5.60;86.60
51369;BME280;37459;51.416;5.502;2022-12-18T00:24:08;102130.81;;;-5.51;85.92
51369;BME280;37459;51.416;5.502;2022-12-18T00:26:35;102117.13;;;-5.58;84.88
51369;BME280;37459;51.416;5.502;2022-12-18T00:29:05;102117.19;;;-5.60;85.54
51369;BME280;37459;51.416;5.502;2022-12-18T00:31:32;102105.28;;;-5.67;85.53
51369;BME280;37459;51.416;5.502;2022-12-18T00:33:59;102101.03;;;-5.69;85.62
51369;BME280;37459;51.416;5.502;2022-12-18T00:36:27;102103.97;;;-5.58;85.10
51369;BME280;37459;51.416;5.502;2022-12-18T00:38:56;102100.59;;;-5.60;83.97
51369;BME280;37459;51.416;5.502;2022-12-18T00:41:25;102092.09;;;-5.65;82.99
51369;BME280;37459;51.416;5.502;2022-12-18T00:44:11;102059.19;;;-5.91;82.97
51369;BME280;37459;51.416;5.502;2022-12-18T00:46:38;102094.22;;;-5.73;83.63
51369;BME280;37459;51.416;5.502;2022-12-18T00:49:05;102091.97;;;-5.81;82.87
51369;BME280;37459;51.416;5.502;2022-12-18T00:51:32;102090.56;;;-5.88;83.09
51369;BME280;37459;51.416;5.502;2022-12-18T00:53:58;102095.97;;;-5.91;83.58
51369;BME280;37459;51.416;5.502;2022-12-18T00:56:26;102086.34;;;-6.10;83.63
51369;BME280;37459;51.416;5.502;2022-12-18T00:58:53;102072.88;;;-6.21;83.46
51369;BME280;37459;51.416;5.502;2022-12-18T01:01:20;102094.88;;;-6.05;83.33
51369;BME280;37459;51.416;5.502;2022-12-18T01:03:46;102089.63;;;-6.05;83.73
51369;BME280;37459;51.416;5.502;2022-12-18T01:06:14;102103.44;;;-6.01;83.47
51369;BME280;37459;51.416;5.502;2022-12-18T01:08:41;102104.72;;;-6.10;83.47
51369;BME280;37459;51.416;5.502;2022-12-18T01:11:09;102100.91;;;-6.03;83.87
51369;BME280;37459;51.416;5.502;2022-12-18T01:13:38;102108.47;;;-5.96;83.38
51369;BME280;37459;51.416;5.502;2022-12-18T01:16:05;102111.59;;;-6.07;83.74
51369;BME280;37459;51.416;5.502;2022-12-18T01:18:32;102115.00;;;-6.05;83.55
51369;BME280;37459;51.416;5.502;2022-12-18T01:20:59;102119.41;;;-6.06;82.57
51369;BME280;37459;51.416;5.502;2022-12-18T01:23:26;102099.06;;;-6.20;83.35
51369;BME280;37459;51.416;5.502;2022-12-18T01:25:53;102095.66;;;-6.22;83.52
51369;BME280;37459;51.416;5.502;2022-12-18T01:28:19;102112.75;;;-6.13;82.19
51369;BME280;37459;51.416;5.502;2022-12-18T01:30:47;102105.88;;;-6.15;83.36
51369;BME280;37459;51.416;5.502;2022-12-18T01:33:14;102108.63;;;-6.18;83.14
51369;BME280;37459;51.416;5.502;2022-12-18T01:35:41;102107.50;;;-6.13;82.79
51369;BME280;37459;51.416;5.502;2022-12-18T01:38:08;102116.88;;;-6.26;82.45
51369;BME280;37459;51.416;5.502;2022-12-18T01:40:35;102108.34;;;-6.31;83.50
51369;BME280;37459;51.416;5.502;2022-12-18T01:43:02;102099.97;;;-6.39;83.15
51369;BME280;37459;51.416;5.502;2022-12-18T01:45:29;102106.06;;;-6.39;82.92
51369;BME280;37459;51.416;5.502;2022-12-18T01:47:59;102113.09;;;-6.39;83.64
51369;BME280;37459;51.416;5.502;2022-12-18T01:50:30;102094.66;;;-6.38;83.73
51369;BME280;37459;51.416;5.502;2022-12-18T01:53:00;102107.66;;;-6.35;83.10
51369;BME280;37459;51.416;5.502;2022-12-18T01:55:30;102106.66;;;-6.32;82.54
51369;BME280;37459;51.416;5.502;2022-12-18T01:57:59;102099.09;;;-6.40;81.79
51369;BME280;37459;51.416;5.502;2022-12-18T02:00:26;102088.53;;;-6.57;82.09
51369;BME280;37459;51.416;5.502;2022-12-18T02:02:53;102102.31;;;-6.52;82.14
51369;BME280;37459;51.416;5.502;2022-12-18T02:05:26;102068.28;;;-6.74;81.89
51369;BME280;37459;51.416;5.502;2022-12-18T02:08:01;102070.63;;;-6.68;82.63
51369;BME280;37459;51.416;5.502;2022-12-18T02:10:32;102089.88;;;-6.49;83.04
51369;BME280;37459;51.416;5.502;2022-12-18T02:13:08;102087.53;;;-6.55;82.21
51369;BME280;37459;51.416;5.502;2022-12-18T02:15:41;102085.22;;;-6.61;82.18
51369;BME280;37459;51.416;5.502;2022-12-18T02:18:12;102090.94;;;-6.53;82.59
51369;BME280;37459;51.416;5.502;2022-12-18T02:20:45;102090.66;;;-6.47;82.32
51369;BME280;37459;51.416;5.502;2022-12-18T02:23:24;102090.16;;;-6.55;82.18
51369;BME280;37459;51.416;5.502;2022-12-18T02:26:07;102089.19;;;-6.52;82.35
51369;BME280;37459;51.416;5.502;2022-12-18T02:28:40;102094.13;;;-6.65;82.65
51369;BME280;37459;51.416;5.502;2022-12-18T02:31:13;102087.88;;;-6.63;81.83
51369;BME280;37459;51.416;5.502;2022-12-18T02:33:42;102088.09;;;-6.67;82.19
51369;BME280;37459;51.416;5.502;2022-12-18T02:36:10;102063.91;;;-6.74;82.39
51369;BME280;37459;51.416;5.502;2022-12-18T02:38:41;102079.66;;;-6.74;81.57
51369;BME280;37459;51.416;5.502;2022-12-18T02:41:10;102074.25;;;-6.71;81.68
51369;BME280;37459;51.416;5.502;2022-12-18T02:43:37;102083.63;;;-6.65;82.73
51369;BME280;37459;51.416;5.502;2022-12-18T02:46:27;102076.81;;;-6.69;82.07
51369;BME280;37459;51.416;5.502;2022-12-18T02:49:02;102052.44;;;-6.71;82.59
51369;BME280;37459;51.416;5.502;2022-12-18T02:51:33;102066.06;;;-6.63;82.31
51369;BME280;37459;51.416;5.502;2022-12-18T02:54:09;102055.97;;;-6.72;81.81
51369;BME280;37459;51.416;5.502;2022-12-18T02:56:42;102054.00;;;-6.67;81.62
51369;BME280;37459;51.416;5.502;2022-12-18T02:59:14;102050.72;;;-6.72;81.43
51369;BME280;37459;51.416;5.502;2022-12-18T03:01:50;102058.72;;;-6.75;81.45
51369;BME280;37459;51.416;5.502;2022-12-18T03:04:21;102067.72;;;-6.81;81.56
51369;BME280;37459;51.416;5.502;2022-12-18T03:06:54;102065.22;;;-6.84;81.28
51369;BME280;37459;51.416;5.502;2022-12-18T03:09:24;102061.63;;;-6.82;82.09
51369;BME280;37459;51.416;5.502;2022-12-18T03:11:58;102051.28;;;-6.85;82.08
51369;BME280;37459;51.416;5.502;2022-12-18T03:14:49;102019.25;;;-6.91;82.58
51369;BME280;37459;51.416;5.502;2022-12-18T03:17:19;102038.16;;;-6.85;82.07
51369;BME280;37459;51.416;5.502;2022-12-18T03:19:49;102017.78;;;-6.98;82.64
51369;BME280;37459;51.416;5.502;2022-12-18T03:22:18;102041.84;;;-6.89;82.92
51369;BME280;37459;51.416;5.502;2022-12-18T03:24:46;102010.28;;;-7.06;83.14
51369;BME280;37459;51.416;5.502;2022-12-18T03:27:18;102032.94;;;-6.85;83.28
51369;BME280;37459;51.416;5.502;2022-12-18T03:29:48;102043.22;;;-6.80;83.55
51369;BME280;37459;51.416;5.502;2022-12-18T03:32:21;102034.59;;;-6.84;82.97
51369;BME280;37459;51.416;5.502;2022-12-18T03:34:50;102038.75;;;-6.78;83.19
51369;BME280;37459;51.416;5.502;2022-12-18T03:37:18;102053.63;;;-6.78;83.16
51369;BME280;37459;51.416;5.502;2022-12-18T03:39:45;102049.34;;;-6.81;83.90
51369;BME280;37459;51.416;5.502;2022-12-18T03:42:18;102052.84;;;-6.80;83.68
51369;BME280;37459;51.416;5.502;2022-12-18T03:44:56;102051.00;;;-6.78;83.28
51369;BME280;37459;51.416;5.502;2022-12-18T03:47:27;102045.47;;;-6.72;83.43
51369;BME280;37459;51.416;5.502;2022-12-18T03:49:58;102044.78;;;-6.76;83.83
51369;BME280;37459;51.416;5.502;2022-12-18T03:52:33;102048.25;;;-6.75;83.83
51369;BME280;37459;51.416;5.502;2022-12-18T03:55:05;102037.91;;;-6.78;83.89
51369;BME280;37459;51.416;5.502;2022-12-18T03:57:35;102017.25;;;-6.86;83.97
51369;BME280;37459;51.416;5.502;2022-12-18T04:00:06;102020.38;;;-6.78;84.41
51369;BME280;37459;51.416;5.502;2022-12-18T04:02:36;102018.06;;;-6.65;84.27
51369;BME280;37459;51.416;5.502;2022-12-18T04:05:05;102016.34;;;-6.66;83.40
51369;BME280;37459;51.416;5.502;2022-12-18T04:07:33;102012.16;;;-6.70;84.27
51369;BME280;37459;51.416;5.502;2022-12-18T04:10:02;101995.00;;;-6.77;84.05
51369;BME280;37459;51.416;5.502;2022-12-18T04:12:30;102000.81;;;-6.71;84.65
51369;BME280;37459;51.416;5.502;2022-12-18T04:14:58;101997.34;;;-6.71;84.14
51369;BME280;37459;51.416;5.502;2022-12-18T04:17:24;101992.09;;;-6.71;84.25
51369;BME280;37459;51.416;5.502;2022-12-18T04:19:51;101991.06;;;-6.67;84.51
51369;BME280;37459;51.416;5.502;2022-12-18T04:22:17;101998.13;;;-6.69;84.00
51369;BME280;37459;51.416;5.502;2022-12-18T04:24:44;101991.31;;;-6.73;83.82
51369;BME280;37459;51.416;5.502;2022-12-18T04:27:10;101991.16;;;-6.70;84.03
51369;BME280;37459;51.416;5.502;2022-12-18T04:29:37;101987.69;;;-6.71;84.48
51369;BME280;37459;51.416;5.502;2022-12-18T04:32:05;101992.47;;;-6.60;85.01
51369;BME280;37459;51.416;5.502;2022-12-18T04:34:32;101975.88;;;-6.79;84.51
51369;BME280;37459;51.416;5.502;2022-12-18T04:36:58;101998.63;;;-6.61;84.50
51369;BME280;37459;51.416;5.502;2022-12-18T04:39:25;102003.66;;;-6.56;84.89
51369;BME280;37459;51.416;5.502;2022-12-18T04:41:51;102005.56;;;-6.60;84.07
51369;BME280;37459;51.416;5.502;2022-12-18T04:44:18;102003.09;;;-6.63;84.34
51369;BME280;37459;51.416;5.502;2022-12-18T04:46:45;101995.34;;;-6.66;84.60
51369;BME280;37459;51.416;5.502;2022-12-18T04:49:12;102011.19;;;-6.68;84.30
51369;BME280;37459;51.416;5.502;2022-12-18T04:51:39;102022.38;;;-6.64;84.77
51369;BME280;37459;51.416;5.502;2022-12-18T04:54:06;101996.84;;;-6.79;85.06
51369;BME280;37459;51.416;5.502;2022-12-18T04:56:32;102019.13;;;-6.69;84.84
51369;BME280;37459;51.416;5.502;2022-12-18T04:58:59;102029.81;;;-6.74;85.28
51369;BME280;37459;51.416;5.502;2022-12-18T05:01:25;102018.84;;;-6.63;84.58
51369;BME280;37459;51.416;5.502;2022-12-18T05:03:52;102034.06;;;-6.71;83.19
51369;BME280;37459;51.416;5.502;2022-12-18T05:06:20;102029.16;;;-6.79;83.57
51369;BME280;37459;51.416;5.502;2022-12-18T05:08:47;102018.09;;;-6.86;84.95
51369;BME280;37459;51.416;5.502;2022-12-18T05:11:14;102012.44;;;-6.95;83.55
51369;BME280;37459;51.416;5.502;2022-12-18T05:13:42;102024.34;;;-6.88;84.02
51369;BME280;37459;51.416;5.502;2022-12-18T05:16:09;101993.25;;;-7.16;83.52
51369;BME280;37459;51.416;5.502;2022-12-18T05:18:36;102023.03;;;-6.98;84.60
51369;BME280;37459;51.416;5.502;2022-12-18T05:21:04;102017.66;;;-6.95;84.51
51369;BME280;37459;51.416;5.502;2022-12-18T05:23:32;102033.81;;;-6.86;84.47
51369;BME280;37459;51.416;5.502;2022-12-18T05:26:03;102009.66;;;-6.92;83.66
51369;BME280;37459;51.416;5.502;2022-12-18T05:28:31;102021.38;;;-6.80;83.48
51369;BME280;37459;51.416;5.502;2022-12-18T05:31:00;102008.53;;;-6.87;83.48
51369;BME280;37459;51.416;5.502;2022-12-18T05:33:29;102011.28;;;-6.90;83.15
51369;BME280;37459;51.416;5.502;2022-12-18T05:35:58;102014.84;;;-6.91;82.64
51369;BME280;37459;51.416;5.502;2022-12-18T05:38:28;102015.75;;;-6.92;82.26
51369;BME280;37459;51.416;5.502;2022-12-18T05:40:56;102012.38;;;-6.94;82.03
51369;BME280;37459;51.416;5.502;2022-12-18T05:43:24;101979.72;;;-7.07;83.31
51369;BME280;37459;51.416;5.502;2022-12-18T05:45:51;101998.66;;;-7.00;83.12
51369;BME280;37459;51.416;5.502;2022-12-18T05:48:18;102001.38;;;-7.02;81.88
51369;BME280;37459;51.416;5.502;2022-12-18T05:50:46;102006.34;;;-6.96;82.44
51369;BME280;37459;51.416;5.502;2022-12-18T05:53:13;102007.31;;;-6.98;82.25
51369;BME280;37459;51.416;5.502;2022-12-18T05:55:41;102012.22;;;-6.91;82.70
51369;BME280;37459;51.416;5.502;2022-12-18T05:58:11;102003.06;;;-7.01;82.83
51369;BME280;37459;51.416;5.502;2022-12-18T06:00:40;102006.47;;;-6.99;83.29
51369;BME280;37459;51.416;5.502;2022-12-18T06:03:07;101991.00;;;-7.05;82.92
51369;BME280;37459;51.416;5.502;2022-12-18T06:05:38;102002.22;;;-7.02;82.95
51369;BME280;37459;51.416;5.502;2022-12-18T06:08:05;101999.44;;;-6.98;82.42
51369;BME280;37459;51.416;5.502;2022-12-18T06:10:32;101982.91;;;-7.00;83.06
51369;BME280;37459;51.416;5.502;2022-12-18T06:12:59;101994.13;;;-6.97;82.85
51369;BME280;37459;51.416;5.502;2022-12-18T06:15:27;102001.00;;;-6.94;82.52
51369;BME280;37459;51.416;5.502;2022-12-18T06:17:53;102006.66;;;-7.04;83.57
51369;BME280;37459;51.416;5.502;2022-12-18T06:20:20;102001.56;;;-7.07;83.72
51369;BME280;37459;51.416;5.502;2022-12-18T06:22:46;102005.81;;;-7.04;84.14
51369;BME280;37459;51.416;5.502;2022-12-18T06:25:13;102006.25;;;-6.94;85.03
51369;BME280;37459;51.416;5.502;2022-12-18T06:27:40;102004.19;;;-6.88;84.35
51369;BME280;37459;51.416;5.502;2022-12-18T06:30:08;102007.81;;;-6.90;84.25
51369;BME280;37459;51.416;5.502;2022-12-18T06:32:36;102009.44;;;-6.88;83.42
51369;BME280;37459;51.416;5.502;2022-12-18T06:35:03;101989.47;;;-6.90;84.15
51369;BME280;37459;51.416;5.502;2022-12-18T06:37:30;101996.75;;;-6.97;84.20
51369;BME280;37459;51.416;5.502;2022-12-18T06:39:57;102008.38;;;-6.84;84.38
51369;BME280;37459;51.416;5.502;2022-12-18T06:42:24;101994.13;;;-6.97;84.22
51369;BME280;37459;51.416;5.502;2022-12-18T06:44:51;102004.50;;;-6.94;84.21
51369;BME280;37459;51.416;5.502;2022-12-18T06:47:18;102002.50;;;-6.89;83.98
51369;BME280;37459;51.416;5.502;2022-12-18T06:49:46;101996.13;;;-7.02;82.80
51369;BME280;37459;51.416;5.502;2022-12-18T06:52:12;101996.13;;;-7.02;83.38
51369;BME280;37459;51.416;5.502;2022-12-18T06:54:41;101999.38;;;-6.97;82.58
51369;BME280;37459;51.416;5.502;2022-12-18T06:57:07;101973.59;;;-7.06;83.03
51369;BME280;37459;51.416;5.502;2022-12-18T06:59:34;101988.81;;;-6.95;83.59
51369;BME280;37459;51.416;5.502;2022-12-18T07:02:01;101987.19;;;-6.98;83.47
51369;BME280;37459;51.416;5.502;2022-12-18T07:04:28;101989.88;;;-6.99;83.18
51369;BME280;37459;51.416;5.502;2022-12-18T07:06:56;101990.59;;;-6.96;83.12
51369;BME280;37459;51.416;5.502;2022-12-18T07:09:23;101992.28;;;-6.95;83.68
51369;BME280;37459;51.416;5.502;2022-12-18T07:11:50;101981.28;;;-7.03;83.04
51369;BME280;37459;51.416;5.502;2022-12-18T07:14:16;101975.53;;;-7.11;83.14
51369;BME280;37459;51.416;5.502;2022-12-18T07:16:43;101974.66;;;-6.91;83.64
51369;BME280;37459;51.416;5.502;2022-12-18T07:19:09;101972.78;;;-7.08;82.94
51369;BME280;37459;51.416;5.502;2022-12-18T07:21:36;101967.56;;;-7.08;83.89
51369;BME280;37459;51.416;5.502;2022-12-18T07:24:05;101953.03;;;-6.96;83.87
51369;BME280;37459;51.416;5.502;2022-12-18T07:26:32;101934.31;;;-7.08;83.47
51369;BME280;37459;51.416;5.502;2022-12-18T07:28:58;101930.59;;;-7.02;84.01
51369;BME280;37459;51.416;5.502;2022-12-18T07:31:25;101931.50;;;-7.03;83.82
51369;BME280;37459;51.416;5.502;2022-12-18T07:33:52;101925.25;;;-7.00;84.54
51369;BME280;37459;51.416;5.502;2022-12-18T07:36:19;101891.09;;;-7.18;83.80
51369;BME280;37459;51.416;5.502;2022-12-18T07:38:49;101923.91;;;-7.09;84.55
51369;BME280;37459;51.416;5.502;2022-12-18T07:41:18;101928.31;;;-6.91;84.63
51369;BME280;37459;51.416;5.502;2022-12-18T07:43:45;101906.50;;;-7.10;85.25
51369;BME280;37459;51.416;5.502;2022-12-18T07:46:13;101931.50;;;-6.84;85.46
51369;BME280;37459;51.416;5.502;2022-12-18T07:48:40;101921.16;;;-6.87;84.97
51369;BME280;37459;51.416;5.502;2022-12-18T07:51:08;101905.06;;;-6.79;84.50
51369;BME280;37459;51.416;5.502;2022-12-18T07:53:37;101897.91;;;-6.76;85.04
51369;BME280;37459;51.416;5.502;2022-12-18T07:56:07;101896.69;;;-6.69;85.41
51369;BME280;37459;51.416;5.502;2022-12-18T07:58:36;101896.75;;;-6.70;85.09
51369;BME280;37459;51.416;5.502;2022-12-18T08:01:04;101885.97;;;-6.64;85.68
51369;BME280;37459;51.416;5.502;2022-12-18T08:03:30;101879.03;;;-6.65;85.71
51369;BME280;37459;51.416;5.502;2022-12-18T08:05:59;101873.63;;;-6.62;85.91
51369;BME280;37459;51.416;5.502;2022-12-18T08:08:25;101867.00;;;-6.69;86.31
51369;BME280;37459;51.416;5.502;2022-12-18T08:10:52;101878.75;;;-6.59;86.21
51369;BME280;37459;51.416;5.502;2022-12-18T08:13:18;101899.56;;;-6.56;87.14
51369;BME280;37459;51.416;5.502;2022-12-18T08:15:46;101867.59;;;-6.64;86.92
51369;BME280;37459;51.416;5.502;2022-12-18T08:18:13;101899.84;;;-6.43;86.72
51369;BME280;37459;51.416;5.502;2022-12-18T08:20:39;101902.06;;;-6.35;86.76
51369;BME280;37459;51.416;5.502;2022-12-18T08:23:08;101897.00;;;-6.38;87.38
51369;BME280;37459;51.416;5.502;2022-12-18T08:25:35;101893.88;;;-6.47;87.42
51369;BME280;37459;51.416;5.502;2022-12-18T08:28:02;101903.63;;;-6.31;86.83
51369;BME280;37459;51.416;5.502;2022-12-18T08:30:28;101904.88;;;-6.21;87.36
51369;BME280;37459;51.416;5.502;2022-12-18T08:32:56;101902.81;;;-6.14;86.79
51369;BME280;37459;51.416;5.502;2022-12-18T08:35:23;101900.94;;;-6.12;87.03
51369;BME280;37459;51.416;5.502;2022-12-18T08:37:49;101916.47;;;-6.08;87.40
51369;BME280;37459;51.416;5.502;2022-12-18T08:40:16;101906.69;;;-6.04;87.31
51369;BME280;37459;51.416;5.502;2022-12-18T08:42:42;101910.31;;;-6.07;87.06
51369;BME280;37459;51.416;5.502;2022-12-18T08:45:27;101898.56;;;-6.00;87.48
51369;BME280;37459;51.416;5.502;2022-12-18T08:47:55;101885.88;;;-5.91;87.13
51369;BME280;37459;51.416;5.502;2022-12-18T08:50:21;101882.47;;;-5.93;87.33
51369;BME280;37459;51.416;5.502;2022-12-18T08:52:48;101870.47;;;-5.97;87.47
51369;BME280;37459;51.416;5.502;2022-12-18T08:55:15;101874.19;;;-5.86;87.34
51369;BME280;37459;51.416;5.502;2022-12-18T08:57:41;101885.69;;;-5.88;86.99
51369;BME280;37459;51.416;5.502;2022-12-18T09:00:09;101886.72;;;-5.91;87.38
51369;BME280;37459;51.416;5.502;2022-12-18T09:02:35;101873.66;;;-5.92;88.56
51369;BME280;37459;51.416;5.502;2022-12-18T09:05:04;101865.88;;;-5.94;88.13
51369;BME280;37459;51.416;5.502;2022-12-18T09:07:31;101876.59;;;-5.81;88.27
51369;BME280;37459;51.416;5.502;2022-12-18T09:09:57;101867.78;;;-5.80;88.47
51369;BME280;37459;51.416;5.502;2022-12-18T09:12:24;101876.59;;;-5.81;89.33
51369;BME280;37459;51.416;5.502;2022-12-18T09:14:51;101879.66;;;-5.73;88.60
51369;BME280;37459;51.416;5.502;2022-12-18T09:17:17;101893.09;;;-5.62;88.80
51369;BME280;37459;51.416;5.502;2022-12-18T09:19:44;101899.31;;;-5.47;91.08
51369;BME280;37459;51.416;5.502;2022-12-18T09:22:12;101893.81;;;-5.42;88.26
51369;BME280;37459;51.416;5.502;2022-12-18T09:24:38;101902.91;;;-5.32;87.90
51369;BME280;37459;51.416;5.502;2022-12-18T09:27:05;101901.88;;;-5.45;88.38
51369;BME280;37459;51.416;5.502;2022-12-18T09:29:32;101895.72;;;-5.44;88.48
51369;BME280;37459;51.416;5.502;2022-12-18T09:31:58;101889.56;;;-5.45;88.42
51369;BME280;37459;51.416;5.502;2022-12-18T09:34:25;101878.22;;;-5.45;89.07
51369;BME280;37459;51.416;5.502;2022-12-18T09:36:51;101885.84;;;-5.41;89.68
51369;BME280;37459;51.416;5.502;2022-12-18T09:39:19;101870.78;;;-5.37;89.69
51369;BME280;37459;51.416;5.502;2022-12-18T09:41:50;101873.16;;;-5.32;89.66
51369;BME280;37459;51.416;5.502;2022-12-18T09:44:23;101854.75;;;-5.32;89.75
51369;BME280;37459;51.416;5.502;2022-12-18T09:46:54;101879.13;;;-5.29;89.48
51369;BME280;37459;51.416;5.502;2022-12-18T09:49:27;101880.50;;;-5.06;92.56
51369;BME280;37459;51.416;5.502;2022-12-18T09:51:58;101879.13;;;-4.97;89.60
51369;BME280;37459;51.416;5.502;2022-12-18T09:54:32;101874.06;;;-5.00;89.98
51369;BME280;37459;51.416;5.502;2022-12-18T09:56:59;101864.13;;;-4.95;90.07
51369;BME280;37459;51.416;5.502;2022-12-18T09:59:30;101859.19;;;-4.69;89.37
51369;BME280;37459;51.416;5.502;2022-12-18T10:01:58;101850.53;;;-4.71;89.97
51369;BME280;37459;51.416;5.502;2022-12-18T10:04:32;101857.09;;;-4.79;88.79
51369;BME280;37459;51.416;5.502;2022-12-18T10:07:03;101835.44;;;-4.84;88.02
51369;BME280;37459;51.416;5.502;2022-12-18T10:09:37;101857.25;;;-4.82;88.43
51369;BME280;37459;51.416;5.502;2022-12-18T10:12:14;101847.31;;;-4.77;89.30
51369;BME280;37459;51.416;5.502;2022-12-18T10:14:50;101863.88;;;-4.75;89.98
51369;BME280;37459;51.416;5.502;2022-12-18T10:17:26;101857.84;;;-4.77;90.45
51369;BME280;37459;51.416;5.502;2022-12-18T10:19:59;101834.16;;;-4.77;89.28
51369;BME280;37459;51.416;5.502;2022-12-18T10:22:40;101856.22;;;-4.63;89.69
51369;BME280;37459;51.416;5.502;2022-12-18T10:25:19;101861.47;;;-4.63;89.49
51369;BME280;37459;51.416;5.502;2022-12-18T10:27:48;101854.94;;;-4.56;90.01
51369;BME280;37459;51.416;5.502;2022-12-18T10:30:20;101845.84;;;-4.50;90.81
51369;BME280;37459;51.416;5.502;2022-12-18T10:32:47;101844.81;;;-4.48;90.37
51369;BME280;37459;51.416;5.502;2022-12-18T10:35:18;101832.50;;;-4.47;89.50
51369;BME280;37459;51.416;5.502;2022-12-18T10:38:05;101828.19;;;-4.48;90.07
51369;BME280;37459;51.416;5.502;2022-12-18T10:40:48;101807.97;;;-4.48;90.46
51369;BME280;37459;51.416;5.502;2022-12-18T10:43:16;101812.53;;;-4.36;89.28
51369;BME280;37459;51.416;5.502;2022-12-18T10:45:59;101790.47;;;-4.49;90.34
51369;BME280;37459;51.416;5.502;2022-12-18T10:48:26;101797.72;;;-4.38;90.04
51369;BME280;37459;51.416;5.502;2022-12-18T10:50:54;101807.63;;;-4.27;89.79
51369;BME280;37459;51.416;5.502;2022-12-18T10:53:22;101805.19;;;-4.30;90.24
51369;BME280;37459;51.416;5.502;2022-12-18T10:55:52;101805.00;;;-4.27;90.74
51369;BME280;37459;51.416;5.502;2022-12-18T10:58:23;101791.75;;;-4.26;90.97
51369;BME280;37459;51.416;5.502;2022-12-18T11:01:07;101791.88;;;-4.13;89.91
51369;BME280;37459;51.416;5.502;2022-12-18T11:03:35;101775.13;;;-4.12;89.71
51369;BME280;37459;51.416;5.502;2022-12-18T11:06:07;101773.34;;;-4.11;90.36
51369;BME280;37459;51.416;5.502;2022-12-18T11:08:35;101767.16;;;-3.96;88.75
51369;BME280;37459;51.416;5.502;2022-12-18T11:11:09;101767.63;;;-4.04;89.59
51369;BME280;37459;51.416;5.502;2022-12-18T11:13:50;101773.09;;;-4.07;89.73
51369;BME280;37459;51.416;5.502;2022-12-18T11:16:20;101787.41;;;-3.97;89.83
51369;BME280;37459;51.416;5.502;2022-12-18T11:18:47;101784.66;;;-3.95;90.88
51369;BME280;37459;51.416;5.502;2022-12-18T11:21:13;101779.50;;;-3.97;90.78
51369;BME280;37459;51.416;5.502;2022-12-18T11:23:46;101769.22;;;-4.01;90.61
51369;BME280;37459;51.416;5.502;2022-12-18T11:26:15;101774.78;;;-3.92;90.72
51369;BME280;37459;51.416;5.502;2022-12-18T11:28:44;101744.78;;;-4.03;91.35
51369;BME280;37459;51.416;5.502;2022-12-18T11:31:23;101751.53;;;-3.85;91.18
51369;BME280;37459;51.416;5.502;2022-12-18T11:33:54;101745.81;;;-3.77;90.88
51369;BME280;37459;51.416;5.502;2022-12-18T11:36:23;101743.25;;;-3.79;89.80
51369;BME280;37459;51.416;5.502;2022-12-18T11:38:52;101745.91;;;-3.79;90.89
51369;BME280;37459;51.416;5.502;2022-12-18T11:41:26;101741.38;;;-3.77;90.05
51369;BME280;37459;51.416;5.502;2022-12-18T11:44:16;101743.13;;;-3.63;88.53
51369;BME280;37459;51.416;5.502;2022-12-18T11:46:51;101741.63;;;-3.67;90.06
51369;BME280;37459;51.416;5.502;2022-12-18T11:49:22;101739.88;;;-3.66;91.49
51369;BME280;37459;51.416;5.502;2022-12-18T11:51:57;101735.44;;;-3.66;91.09
51369;BME280;37459;51.416;5.502;2022-12-18T11:54:26;101736.75;;;-3.59;90.66
51369;BME280;37459;51.416;5.502;2022-12-18T11:56:58;101721.00;;;-3.60;89.70
51369;BME280;37459;51.416;5.502;2022-12-18T11:59:34;101709.84;;;-3.64;90.20
51369;BME280;37459;51.416;5.502;2022-12-18T12:02:16;101725.72;;;-3.51;90.79
51369;BME280;37459;51.416;5.502;2022-12-18T12:04:53;101720.34;;;-3.49;89.60
51369;BME280;37459;51.416;5.502;2022-12-18T12:07:31;101729.34;;;-3.39;89.74
51369;BME280;37459;51.416;5.502;2022-12-18T12:10:10;101717.97;;;-3.40;90.61
51369;BME280;37459;51.416;5.502;2022-12-18T12:12:55;101711.25;;;-3.31;92.48
51369;BME280;37459;51.416;5.502;2022-12-18T12:15:33;101692.91;;;-3.33;90.88
51369;BME280;37459;51.416;5.502;2022-12-18T12:18:12;101670.44;;;-3.38;91.13
51369;BME280;37459;51.416;5.502;2022-12-18T12:20:49;101679.41;;;-3.28;90.66
51369;BME280;37459;51.416;5.502;2022-12-18T12:23:26;101702.56;;;-3.19;91.10
51369;BME280;37459;51.416;5.502;2022-12-18T12:25:58;101687.66;;;-3.20;90.31
51369;BME280;37459;51.416;5.502;2022-12-18T12:28:39;101698.00;;;-3.17;89.55
51369;BME280;37459;51.416;5.502;2022-12-18T12:31:17;101694.44;;;-3.16;89.99
51369;BME280;37459;51.416;5.502;2022-12-18T12:33:52;101689.81;;;-3.12;88.67
51369;BME280;37459;51.416;5.502;2022-12-18T12:36:26;101688.94;;;-3.13;88.44
51369;BME280;37459;51.416;5.502;2022-12-18T12:39:00;101682.84;;;-3.13;89.26
51369;BME280;37459;51.416;5.502;2022-12-18T12:41:31;101663.72;;;-3.17;89.36
51369;BME280;37459;51.416;5.502;2022-12-18T12:44:20;101661.44;;;-3.08;88.76
51369;BME280;37459;51.416;5.502;2022-12-18T12:46:48;101652.03;;;-3.13;87.87
51369;BME280;37459;51.416;5.502;2022-12-18T12:49:20;101647.84;;;-3.02;87.89
51369;BME280;37459;51.416;5.502;2022-12-18T12:51:53;101656.84;;;-2.92;88.08
51369;BME280;37459;51.416;5.502;2022-12-18T12:54:26;101652.72;;;-2.83;89.38
51369;BME280;37459;51.416;5.502;2022-12-18T12:56:58;101653.16;;;-2.77;86.48
51369;BME280;37459;51.416;5.502;2022-12-18T12:59:34;101642.50;;;-2.88;87.06
51369;BME280;37459;51.416;5.502;2022-12-18T13:02:08;101641.22;;;-2.82;86.50
51369;BME280;37459;51.416;5.502;2022-12-18T13:04:45;101634.56;;;-2.88;86.39